Terminal Aerodrome Forecast
Issued by NWS

Home | Current Version | Previous Version | Text Only | Print | Product List | Glossary On
Versions: 1 2 3 4 5 6 7 8 9 10 11 12 13 14 15 16 17 18 19 20 21 22 23 24
000
FTUS45 KGJT 210531
TAFCNY
TAF
KCNY 210531Z 2106/2206 VRB03KT P6SM BKN110
     FM211100 13005KT P6SM OVC150
     FM211400 VRB03KT P6SM VCSH SCT060 OVC090
     FM211800 34010KT P6SM SCT060 BKN090
     FM220000 26009KT P6SM BKN150=

USA.gov is the U.S. government's official web portal to all federal, state and local government web resources and services.